createdAt,value
2022-11-24T00:01:23.481Z,80.88
2022-11-24T00:03:58.042Z,82.77
2022-11-24T00:06:25.864Z,83.32
2022-11-24T00:08:53.542Z,83.04
2022-11-24T00:11:28.025Z,82.86
2022-11-24T00:13:55.875Z,82.58
2022-11-24T00:16:30.229Z,82.52
2022-11-24T00:18:59.586Z,82.32
2022-11-24T00:21:28.018Z,81.61
2022-11-24T00:23:55.034Z,81.43
2022-11-24T00:26:27.568Z,81.42
2022-11-24T00:28:56.673Z,80.54
2022-11-24T00:31:43.738Z,80.34
2022-11-24T00:34:13.364Z,80.47
2022-11-24T00:36:41.197Z,80.17
2022-11-24T00:39:12.437Z,80.25
2022-11-24T00:41:39.786Z,79.48
2022-11-24T00:44:06.574Z,79.54
2022-11-24T00:46:34.304Z,79.79
2022-11-24T00:49:02.542Z,79.58
2022-11-24T00:51:32.509Z,79.95
2022-11-24T00:54:00.979Z,79.53
2022-11-24T00:56:29.763Z,79.33
2022-11-24T00:58:56.671Z,79.50
2022-11-24T01:01:26.354Z,80.22
2022-11-24T01:03:55.447Z,81.16
2022-11-24T01:06:27.120Z,80.77
2022-11-24T01:08:55.830Z,81.88
2022-11-24T01:11:24.115Z,81.99
2022-11-24T01:13:58.001Z,82.00
2022-11-24T01:16:33.424Z,81.59
2022-11-24T01:19:01.095Z,81.12
2022-11-24T01:21:27.874Z,80.68
2022-11-24T01:23:54.633Z,80.26
2022-11-24T01:26:22.579Z,80.18
2022-11-24T01:28:56.699Z,80.00
2022-11-24T01:31:24.758Z,80.10
2022-11-24T01:33:51.808Z,80.71
2022-11-24T01:36:18.682Z,81.61
2022-11-24T01:38:46.264Z,81.79
2022-11-24T01:41:19.288Z,81.87
2022-11-24T01:43:47.039Z,83.07
2022-11-24T01:46:22.786Z,83.89
2022-11-24T01:49:12.137Z,83.74
2022-11-24T01:51:45.653Z,84.52
2022-11-24T01:54:18.778Z,85.25
2022-11-24T01:56:48.773Z,84.69
2022-11-24T01:59:17.701Z,83.71
2022-11-24T02:01:44.956Z,84.14
2022-11-24T02:04:14.894Z,85.15
2022-11-24T02:06:45.012Z,85.15
2022-11-24T02:09:19.800Z,84.74
2022-11-24T02:11:47.372Z,84.02
2022-11-24T02:14:18.139Z,84.94
2022-11-24T02:16:49.350Z,86.33
2022-11-24T02:19:32.549Z,85.95
2022-11-24T02:22:00.309Z,85.26
2022-11-24T02:25:16.041Z,85.99
2022-11-24T02:27:49.384Z,85.61
2022-11-24T02:30:19.269Z,83.83
2022-11-24T02:32:45.953Z,82.67
2022-11-24T02:35:14.848Z,82.54
2022-11-24T02:37:41.550Z,80.83
2022-11-24T02:40:08.984Z,81.62
2022-11-24T02:42:41.638Z,82.48
2022-11-24T02:45:10.408Z,83.53
2022-11-24T02:47:37.101Z,86.27
2022-11-24T02:50:04.415Z,86.49
2022-11-24T02:52:31.187Z,85.34
2022-11-24T02:54:58.068Z,83.45
2022-11-24T02:57:24.765Z,82.16
2022-11-24T02:59:51.514Z,80.96
2022-11-24T03:02:18.309Z,81.30
2022-11-24T03:04:45.206Z,81.93
2022-11-24T03:07:11.977Z,83.33
2022-11-24T03:09:38.729Z,83.38
2022-11-24T03:12:05.592Z,85.01
2022-11-24T03:14:32.783Z,86.14
2022-11-24T03:16:59.888Z,86.03
2022-11-24T03:19:26.650Z,86.02
2022-11-24T03:21:53.554Z,85.84
2022-11-24T03:24:20.670Z,84.71
2022-11-24T03:26:47.371Z,84.45
2022-11-24T03:29:14.230Z,83.31
2022-11-24T03:31:41.035Z,82.81
2022-11-24T03:34:08.006Z,82.52
2022-11-24T03:36:34.754Z,81.75
2022-11-24T03:39:01.604Z,81.83
2022-11-24T03:41:28.336Z,82.02
2022-11-24T03:43:55.064Z,81.51
2022-11-24T03:46:21.864Z,81.30
2022-11-24T03:48:48.858Z,80.98
2022-11-24T03:51:15.631Z,81.24
2022-11-24T03:53:42.468Z,80.83
2022-11-24T03:56:09.484Z,80.44
2022-11-24T03:58:36.549Z,80.00
2022-11-24T04:01:03.662Z,80.00
2022-11-24T04:03:30.514Z,80.45
2022-11-24T04:05:57.382Z,80.16
2022-11-24T04:08:24.821Z,79.87
2022-11-24T04:10:53.760Z,80.57
2022-11-24T04:13:24.171Z,79.99
2022-11-24T04:15:51.445Z,79.71
2022-11-24T04:18:18.968Z,80.09
2022-11-24T04:20:46.067Z,80.08
2022-11-24T04:23:12.783Z,80.70
2022-11-24T04:25:41.505Z,80.46
2022-11-24T04:28:08.822Z,79.34
2022-11-24T04:30:36.324Z,81.01
2022-11-24T04:33:03.084Z,80.75
2022-11-24T04:35:29.886Z,81.58
2022-11-24T04:37:56.680Z,81.86
2022-11-24T04:40:23.438Z,81.40
2022-11-24T04:42:56.444Z,80.92
2022-11-24T04:45:24.200Z,82.00
2022-11-24T04:47:51.416Z,83.49
2022-11-24T04:50:18.490Z,84.32
2022-11-24T04:52:45.492Z,84.53
2022-11-24T04:55:12.331Z,86.48
2022-11-24T04:57:39.429Z,87.47
2022-11-24T05:00:07.155Z,86.07
2022-11-24T05:02:33.940Z,85.37
2022-11-24T05:05:00.724Z,84.07
2022-11-24T05:07:27.855Z,84.08
2022-11-24T05:10:13.138Z,83.65
2022-11-24T05:12:40.095Z,83.95
2022-11-24T05:15:07.654Z,84.78
2022-11-24T05:17:37.267Z,84.42
2022-11-24T05:20:06.136Z,84.06
2022-11-24T05:22:33.055Z,85.74
2022-11-24T05:24:59.883Z,86.83
2022-11-24T05:27:26.640Z,87.03
2022-11-24T05:29:53.527Z,86.68
2022-11-24T05:32:20.745Z,85.52
2022-11-24T05:34:47.976Z,84.90
2022-11-24T05:37:14.725Z,84.33
2022-11-24T05:39:41.470Z,84.72
2022-11-24T05:42:27.075Z,83.51
2022-11-24T05:44:54.252Z,84.65
2022-11-24T05:47:21.579Z,84.09
2022-11-24T05:49:48.549Z,83.90
2022-11-24T05:52:16.150Z,83.75
2022-11-24T05:54:42.970Z,83.92
2022-11-24T05:57:09.767Z,84.07
2022-11-24T05:59:36.579Z,85.11
2022-11-24T06:02:03.559Z,84.93
2022-11-24T06:04:30.487Z,85.54
2022-11-24T06:06:57.245Z,86.50
2022-11-24T06:09:24.133Z,86.46
2022-11-24T06:11:52.905Z,85.39
2022-11-24T06:14:19.770Z,84.68
2022-11-24T06:16:47.383Z,84.86
2022-11-24T06:19:14.308Z,84.11
2022-11-24T06:21:41.133Z,86.30
2022-11-24T06:24:08.286Z,87.00
2022-11-24T06:26:35.044Z,87.23
2022-11-24T06:29:01.999Z,86.38
2022-11-24T06:31:28.837Z,86.50
2022-11-24T06:33:55.579Z,85.97
2022-11-24T06:36:22.899Z,84.90
2022-11-24T06:38:49.654Z,85.35
2022-11-24T06:41:16.736Z,85.24
2022-11-24T06:43:44.151Z,84.69
2022-11-24T06:46:11.813Z,84.62
2022-11-24T06:48:38.740Z,83.71
2022-11-24T06:51:10.489Z,83.75
2022-11-24T06:53:38.613Z,83.73
2022-11-24T06:56:13.717Z,83.25
2022-11-24T06:58:44.459Z,83.21
2022-11-24T07:01:16.147Z,82.65
2022-11-24T07:03:43.053Z,82.97
2022-11-24T07:06:09.972Z,82.88
2022-11-24T07:08:37.066Z,82.93
2022-11-24T07:11:09.035Z,83.11
2022-11-24T07:13:36.266Z,82.97
2022-11-24T07:16:19.624Z,83.45
2022-11-24T07:18:48.198Z,82.62
2022-11-24T07:21:15.720Z,82.89
2022-11-24T07:23:42.972Z,83.43
2022-11-24T07:26:10.576Z,83.89
2022-11-24T07:28:38.100Z,83.45
2022-11-24T07:31:09.988Z,83.79
2022-11-24T07:33:37.341Z,84.45
2022-11-24T07:36:06.593Z,86.22
2022-11-24T07:38:33.928Z,85.62
2022-11-24T07:41:06.523Z,85.67
2022-11-24T07:43:34.628Z,85.67
2022-11-24T07:46:01.930Z,85.78
2022-11-24T07:48:28.857Z,86.71
2022-11-24T07:50:56.438Z,86.93
2022-11-24T07:53:23.534Z,86.63
2022-11-24T07:56:00.384Z,87.10
2022-11-24T07:58:32.945Z,86.84
2022-11-24T08:01:00.973Z,87.23
2022-11-24T08:03:27.976Z,87.42
2022-11-24T08:06:22.732Z,86.89
2022-11-24T08:08:49.479Z,84.32
2022-11-24T08:11:18.195Z,84.75
2022-11-24T08:13:45.178Z,85.34
2022-11-24T08:16:15.365Z,84.61
2022-11-24T08:18:43.472Z,84.32
2022-11-24T08:21:13.450Z,84.55
2022-11-24T08:23:40.505Z,83.63
2022-11-24T08:26:10.964Z,83.18
2022-11-24T08:28:38.303Z,82.27
2022-11-24T08:31:10.998Z,82.03
2022-11-24T08:33:38.570Z,82.51
2022-11-24T08:36:16.580Z,82.35
2022-11-24T08:38:44.705Z,80.95
2022-11-24T08:41:14.360Z,78.63
2022-11-24T08:43:41.499Z,79.94
2022-11-24T08:46:11.503Z,79.84
2022-11-24T08:48:38.708Z,77.97
2022-11-24T08:51:14.721Z,78.67
2022-11-24T08:53:42.434Z,78.21
2022-11-24T08:56:10.881Z,78.95
2022-11-24T08:58:38.468Z,78.42
2022-11-24T09:01:11.962Z,77.29
2022-11-24T09:03:43.368Z,78.45
2022-11-24T09:06:11.834Z,79.15
2022-11-24T09:08:38.976Z,78.37
2022-11-24T09:11:09.477Z,75.26
2022-11-24T09:13:37.497Z,76.79
2022-11-24T09:16:05.608Z,77.35
2022-11-24T09:18:32.915Z,77.59
2022-11-24T09:21:25.080Z,77.93
2022-11-24T09:23:54.096Z,77.31
2022-11-24T09:26:26.766Z,76.00
2022-11-24T09:28:55.117Z,74.65
2022-11-24T09:31:24.734Z,74.87
2022-11-24T09:33:52.733Z,75.00
2022-11-24T09:36:20.904Z,75.42
2022-11-24T09:38:48.463Z,75.23
2022-11-24T09:41:17.927Z,75.08
2022-11-24T09:44:06.387Z,73.79
2022-11-24T09:46:41.297Z,73.52
2022-11-24T09:49:16.666Z,73.64
2022-11-24T09:51:48.405Z,75.02
2022-11-24T09:54:22.282Z,74.20
2022-11-24T09:56:51.289Z,73.73
2022-11-24T09:59:25.239Z,74.78
2022-11-24T10:01:52.595Z,75.17
2022-11-24T10:04:27.256Z,73.77
2022-11-24T10:07:22.289Z,73.55
2022-11-24T10:10:01.693Z,72.01
2022-11-24T10:13:02.583Z,71.66
2022-11-24T10:16:36.236Z,71.01
2022-11-24T10:19:30.459Z,72.79
2022-11-24T10:22:36.989Z,72.39
2022-11-24T10:25:13.799Z,72.64
2022-11-24T10:27:45.404Z,70.91
2022-11-24T10:30:21.557Z,70.30
2022-11-24T10:33:01.405Z,70.06
2022-11-24T10:35:37.623Z,71.65
2022-11-24T10:38:32.101Z,70.58
2022-11-24T10:41:14.624Z,71.60
2022-11-24T10:43:42.470Z,73.94
2022-11-24T10:46:15.931Z,72.20
2022-11-24T10:48:58.009Z,72.54
2022-11-24T10:51:31.357Z,71.79
2022-11-24T10:54:19.475Z,72.77
2022-11-24T10:56:48.001Z,72.08
2022-11-24T10:59:34.667Z,70.83
2022-11-24T11:02:02.487Z,71.92
2022-11-24T11:04:34.925Z,72.81
2022-11-24T11:07:19.105Z,72.25
2022-11-24T11:09:47.627Z,71.36
2022-11-24T11:12:43.484Z,71.46
2022-11-24T11:15:32.510Z,72.32
2022-11-24T11:18:01.282Z,71.51
2022-11-24T11:20:31.909Z,70.54
2022-11-24T11:23:03.772Z,69.70
2022-11-24T11:25:36.015Z,68.70
2022-11-24T11:28:25.129Z,69.18
2022-11-24T11:31:17.902Z,69.65
2022-11-24T11:34:03.374Z,69.56
2022-11-24T11:36:33.108Z,69.30
2022-11-24T11:39:00.753Z,69.16
2022-11-24T11:41:33.885Z,69.68
2022-11-24T11:44:46.494Z,68.88
2022-11-24T11:47:23.134Z,69.97
2022-11-24T11:49:50.451Z,69.16
2022-11-24T11:52:44.394Z,68.13
2022-11-24T11:55:25.995Z,67.61
2022-11-24T11:58:33.928Z,65.55
2022-11-24T12:01:22.189Z,66.54
2022-11-24T12:04:13.955Z,65.47
2022-11-24T12:06:55.175Z,66.04
2022-11-24T12:09:46.594Z,64.69
2022-11-24T12:12:13.405Z,66.24
2022-11-24T12:15:07.298Z,67.14
2022-11-24T12:18:02.672Z,66.85
2022-11-24T12:21:25.969Z,65.85
2022-11-24T12:24:12.167Z,66.62
2022-11-24T12:26:51.092Z,65.54
2022-11-24T12:29:50.204Z,66.67
2022-11-24T12:32:25.925Z,65.75
2022-11-24T12:35:03.749Z,66.30
2022-11-24T12:37:45.598Z,67.30
2022-11-24T12:40:33.960Z,67.58
2022-11-24T12:43:23.085Z,67.98
2022-11-24T12:46:19.947Z,67.35
2022-11-24T12:49:08.388Z,67.52
2022-11-24T12:51:49.186Z,68.58
2022-11-24T12:54:19.653Z,66.40
2022-11-24T12:57:02.384Z,65.22
2022-11-24T13:00:20.288Z,65.51
2022-11-24T13:03:29.782Z,63.78
2022-11-24T13:06:11.586Z,63.88
2022-11-24T13:08:39.124Z,64.62
2022-11-24T13:11:20.957Z,64.10
2022-11-24T13:13:59.673Z,64.77
2022-11-24T13:17:05.724Z,65.27
2022-11-24T13:19:17.094Z,66.41
2022-11-24T13:21:45.549Z,66.69
2022-11-24T13:24:19.393Z,67.16
2022-11-24T13:27:16.184Z,66.45
2022-11-24T13:29:46.513Z,67.53
2022-11-24T13:32:14.739Z,68.29
2022-11-24T13:34:42.814Z,67.08
2022-11-24T13:37:34.845Z,67.29
2022-11-24T13:40:11.732Z,67.98
2022-11-24T13:43:02.247Z,66.95
2022-11-24T13:45:41.682Z,67.96
2022-11-24T13:48:21.397Z,67.41
2022-11-24T13:50:54.185Z,67.88
2022-11-24T13:53:49.079Z,67.65
2022-11-24T13:56:15.832Z,66.91
2022-11-24T13:58:45.093Z,68.09
2022-11-24T14:01:14.942Z,69.15
2022-11-24T14:03:47.522Z,70.83
2022-11-24T14:06:35.672Z,70.47
2022-11-24T14:09:19.703Z,68.86
2022-11-24T14:11:58.804Z,69.76
2022-11-24T14:14:26.105Z,70.19
2022-11-24T14:17:16.337Z,71.34
2022-11-24T14:19:45.723Z,70.92
2022-11-24T14:22:31.830Z,71.43
2022-11-24T14:25:00.747Z,71.33
2022-11-24T14:27:46.105Z,72.04
2022-11-24T14:30:13.724Z,72.28
2022-11-24T14:32:42.245Z,72.42
2022-11-24T14:35:27.270Z,71.95
2022-11-24T14:37:54.500Z,72.60
2022-11-24T14:40:49.041Z,71.66
2022-11-24T14:43:18.985Z,72.26
2022-11-24T14:46:04.442Z,72.16
2022-11-24T14:48:39.703Z,72.66
2022-11-24T14:51:25.097Z,73.42
2022-11-24T14:53:59.419Z,73.92
2022-11-24T14:56:30.138Z,74.08
2022-11-24T14:58:58.319Z,74.56
2022-11-24T15:01:28.043Z,74.94
2022-11-24T15:05:01.516Z,75.69
2022-11-24T15:07:20.461Z,76.37
2022-11-24T15:09:47.269Z,76.85
2022-11-24T15:12:37.850Z,76.80
2022-11-24T15:15:13.668Z,77.13
2022-11-24T15:18:07.074Z,77.33
2022-11-24T15:20:37.764Z,77.53
2022-11-24T15:23:23.095Z,77.87
2022-11-24T15:25:51.896Z,77.95
2022-11-24T15:28:19.615Z,78.19
2022-11-24T15:30:46.537Z,78.46
2022-11-24T15:33:16.013Z,78.84
2022-11-24T15:35:42.986Z,79.38
2022-11-24T15:38:10.051Z,79.65
2022-11-24T15:40:41.041Z,79.56
2022-11-24T15:43:34.146Z,79.89
2022-11-24T15:46:02.676Z,79.88
2022-11-24T15:48:30.083Z,79.95
2022-11-24T15:50:58.319Z,80.11
2022-11-24T15:53:36.191Z,80.34
2022-11-24T15:56:06.091Z,81.05
2022-11-24T15:58:32.909Z,81.69
2022-11-24T16:00:59.900Z,81.68
2022-11-24T16:06:23.781Z,81.50
2022-11-24T16:08:52.240Z,81.47
2022-11-24T16:11:19.069Z,81.11
2022-11-24T16:13:51.923Z,81.54
2022-11-24T16:16:20.507Z,82.49
2022-11-24T16:18:47.353Z,82.89
2022-11-24T16:21:14.476Z,82.65
2022-11-24T16:23:41.391Z,82.45
2022-11-24T16:26:08.205Z,82.16
2022-11-24T16:28:36.055Z,82.24
2022-11-24T16:31:02.944Z,81.96
2022-11-24T16:33:30.331Z,82.89
2022-11-24T16:35:57.575Z,82.96
2022-11-24T16:38:24.726Z,82.75
2022-11-24T16:40:53.114Z,82.06
2022-11-24T16:43:20.093Z,81.35
2022-11-24T16:45:51.343Z,81.00
2022-11-24T16:48:18.107Z,81.31
2022-11-24T16:50:44.908Z,83.43
2022-11-24T16:53:11.832Z,84.54
2022-11-24T16:55:38.683Z,84.09
2022-11-24T16:58:05.564Z,85.73
2022-11-24T17:00:32.436Z,85.29
2022-11-24T17:02:59.327Z,85.69
2022-11-24T17:05:26.064Z,86.13
2022-11-24T17:07:52.976Z,86.94
2022-11-24T17:10:19.949Z,85.99
2022-11-24T17:12:47.412Z,86.36
2022-11-24T17:15:32.755Z,86.00
2022-11-24T17:18:23.454Z,85.75
2022-11-24T17:20:48.254Z,86.22
2022-11-24T17:23:15.709Z,86.24
2022-11-24T17:25:42.562Z,85.66
2022-11-24T17:28:09.310Z,86.28
2022-11-24T17:30:37.829Z,86.70
2022-11-24T17:33:04.787Z,86.91
2022-11-24T17:35:33.986Z,86.47
2022-11-24T17:38:01.395Z,86.40
2022-11-24T17:40:29.664Z,86.12
2022-11-24T17:43:00.528Z,86.72
2022-11-24T17:45:28.735Z,86.39
2022-11-24T17:47:56.266Z,85.44
2022-11-24T17:50:26.063Z,85.84
2022-11-24T17:52:54.219Z,86.78
2022-11-24T17:55:22.521Z,86.20
2022-11-24T17:57:50.064Z,87.04
2022-11-24T18:00:17.320Z,87.27
2022-11-24T18:02:44.358Z,86.73
2022-11-24T18:05:11.577Z,86.89
2022-11-24T18:07:38.631Z,87.71
2022-11-24T18:10:05.924Z,86.77
2022-11-24T18:12:33.026Z,87.43
2022-11-24T18:15:00.054Z,86.13
2022-11-24T18:17:29.148Z,86.66
2022-11-24T18:19:56.054Z,85.93
2022-11-24T18:22:43.020Z,85.85
2022-11-24T18:25:09.920Z,85.57
2022-11-24T18:27:36.743Z,85.22
2022-11-24T18:30:04.677Z,85.10
2022-11-24T18:32:32.697Z,84.97
2022-11-24T18:34:59.686Z,84.19
2022-11-24T18:37:26.486Z,84.24
2022-11-24T18:39:53.364Z,83.39
2022-11-24T18:42:20.963Z,83.45
2022-11-24T18:44:52.606Z,83.68
2022-11-24T18:47:20.895Z,84.04
2022-11-24T18:49:47.673Z,84.10
2022-11-24T18:52:14.581Z,83.92
2022-11-24T18:54:41.375Z,84.56
2022-11-24T18:57:08.227Z,84.04
2022-11-24T18:59:35.193Z,83.53
2022-11-24T19:02:02.136Z,83.45
2022-11-24T19:04:28.904Z,84.38
2022-11-24T19:06:55.635Z,83.72
2022-11-24T19:09:22.981Z,83.98
2022-11-24T19:11:49.833Z,83.50
2022-11-24T19:14:17.964Z,83.32
2022-11-24T19:16:48.222Z,84.35
2022-11-24T19:19:17.051Z,84.11
2022-11-24T19:21:44.218Z,84.37
2022-11-24T19:24:11.864Z,84.56
2022-11-24T19:26:39.611Z,85.18
2022-11-24T19:29:07.681Z,84.46
2022-11-24T19:31:35.922Z,84.57
2022-11-24T19:34:03.704Z,84.99
2022-11-24T19:36:31.098Z,85.65
2022-11-24T19:38:58.903Z,85.40
2022-11-24T19:41:28.762Z,85.39
2022-11-24T19:43:56.535Z,86.18
2022-11-24T19:46:27.443Z,85.78
2022-11-24T19:48:57.184Z,86.14
2022-11-24T19:51:26.473Z,86.33
2022-11-24T19:53:54.199Z,86.72
2022-11-24T19:56:22.790Z,86.22
2022-11-24T19:58:51.145Z,85.47
2022-11-24T20:01:20.342Z,85.08
2022-11-24T20:03:53.972Z,85.58
2022-11-24T20:06:20.922Z,85.42
2022-11-24T20:08:47.770Z,85.42
2022-11-24T20:11:17.734Z,85.27
2022-11-24T20:13:46.451Z,84.47
2022-11-24T20:16:15.479Z,84.04
2022-11-24T20:18:45.432Z,83.83
2022-11-24T20:21:15.166Z,83.43
2022-11-24T20:23:43.126Z,83.65
2022-11-24T20:26:20.097Z,83.54
2022-11-24T20:28:47.733Z,83.58
2022-11-24T20:31:17.797Z,84.27
2022-11-24T20:33:47.740Z,84.80
2022-11-24T20:36:23.950Z,84.23
2022-11-24T20:38:53.646Z,82.64
2022-11-24T20:41:24.214Z,82.42
2022-11-24T20:43:52.573Z,83.89
2022-11-24T20:46:22.699Z,83.61
2022-11-24T20:48:49.879Z,82.76
2022-11-24T20:51:22.185Z,83.39
2022-11-24T20:53:54.929Z,83.48
2022-11-24T20:56:24.513Z,84.15
2022-11-24T20:58:51.733Z,83.87
2022-11-24T21:01:22.096Z,84.63
2022-11-24T21:03:56.447Z,85.54
2022-11-24T21:06:23.725Z,84.82
2022-11-24T21:08:51.390Z,85.56
2022-11-24T21:11:19.702Z,85.00
2022-11-24T21:13:47.691Z,85.55
2022-11-24T21:16:22.966Z,85.17
2022-11-24T21:18:52.451Z,85.80
2022-11-24T21:21:21.315Z,86.57
2022-11-24T21:23:49.187Z,86.61
2022-11-24T21:26:17.506Z,86.43
2022-11-24T21:28:46.850Z,85.90
2022-11-24T21:31:20.337Z,85.32
2022-11-24T21:33:50.117Z,83.98
2022-11-24T21:36:20.550Z,84.02
2022-11-24T21:38:58.585Z,84.07
2022-11-24T21:41:28.028Z,83.79
2022-11-24T21:43:58.764Z,83.61
2022-11-24T21:46:26.413Z,83.72
2022-11-24T21:48:54.507Z,82.86
2022-11-24T21:51:21.816Z,82.86
2022-11-24T21:53:49.189Z,82.77
2022-11-24T21:56:19.137Z,83.08
2022-11-24T21:58:48.651Z,83.44
2022-11-24T22:01:17.482Z,83.80
2022-11-24T22:03:45.887Z,83.47
2022-11-24T22:06:13.344Z,83.61
2022-11-24T22:08:40.301Z,83.68
2022-11-24T22:11:20.646Z,83.78
2022-11-24T22:13:48.987Z,83.46
2022-11-24T22:16:18.963Z,83.84
2022-11-24T22:18:46.961Z,83.04
2022-11-24T22:21:16.806Z,83.41
2022-11-24T22:23:44.057Z,83.25
2022-11-24T22:26:17.126Z,82.00
2022-11-24T22:28:45.089Z,82.88
2022-11-24T22:31:17.307Z,82.81
2022-11-24T22:33:44.875Z,83.19
2022-11-24T22:36:13.873Z,83.50
2022-11-24T22:38:41.579Z,83.14
2022-11-24T22:41:13.546Z,83.16
2022-11-24T22:43:44.651Z,83.34
2022-11-24T22:46:13.286Z,84.71
2022-11-24T22:48:40.562Z,85.45
2022-11-24T22:51:13.031Z,84.92
2022-11-24T22:53:40.621Z,84.69
2022-11-24T22:56:11.941Z,84.87
2022-11-24T22:58:39.916Z,85.46
2022-11-24T23:01:09.284Z,85.53
2022-11-24T23:03:37.146Z,85.96
2022-11-24T23:06:06.567Z,85.71
2022-11-24T23:08:34.982Z,85.29
2022-11-24T23:11:04.184Z,85.35
2022-11-24T23:13:31.551Z,85.67
2022-11-24T23:16:10.473Z,85.49
2022-11-24T23:18:38.080Z,85.41
2022-11-24T23:21:06.268Z,84.85
2022-11-24T23:23:34.272Z,85.27
2022-11-24T23:26:02.904Z,85.73
2022-11-24T23:28:30.169Z,86.17
2022-11-24T23:31:01.852Z,86.52
2022-11-24T23:33:28.727Z,85.95
2022-11-24T23:35:55.635Z,85.65
2022-11-24T23:38:28.660Z,85.51
2022-11-24T23:41:01.126Z,85.76
2022-11-24T23:43:28.367Z,85.49
2022-11-24T23:45:55.315Z,85.46
2022-11-24T23:48:22.291Z,85.42
2022-11-24T23:50:49.093Z,85.60
2022-11-24T23:53:15.950Z,85.75
2022-11-24T23:55:43.247Z,85.80
2022-11-24T23:58:10.048Z,85.48
